首页
METAR-TAF:

METAR-TAF

机场 :

Presque_Isle_County_Airport

Rogers City, 密歇根州, 美国

纬度: 45-24-25N, 经度: 083-48-46W, 海拔: 204米

当前天气观测

该预报发布于20分钟前的14:15 UTC
风速8节,风向西南
温度 -5°C
湿度 79%
气压 1030 hPa
能見度: 16.1公里
散云层高于12000英尺

METAR: KPZQ 211415Z AUTO 22008KT 10SM SCT120 M05/M08 A3041 RMK AO2 T10531083

时间: 09:35 (14:35 UTC)


TAF: 丢失

超过4000个机场的气象观测和天气预报(METAR&TAF报告)。

可查询的气象台以黄色和红色小点在地图上表示。

将鼠标移到小点上方,可查看气象台名称。

然后点击查看天气观测和预报。

如需切换地图:点击带黑十字的绿色按钮放大地图;点击带横线的绿色按钮缩小地图;或者点击绿色箭头查看邻近地区的地图。


METAR-TAF: